Time;durP1;ratioP1;P1;durP2;ratioP2;P2;SDS_P1;SDS_P2;PMS_P1;PMS_P2;Temp;Humidity;BMP_temperature;BMP_pressure;BME280_temperature;BME280_humidity;BME280_pressure;Samples;Min_cycle;Max_cycle;Signal;HPM_P1;HPM_P2
2023/06/24 00:01:01;;;;;;;8.55;5.03;;;;;;;-146.25;100.00;57403.91;5052226;28;20203;-85
2023/06/24 00:03:28;;;;;;;7.50;4.93;;;;;;;-146.25;100.00;57403.91;5051768;28;20199;-84
2023/06/24 00:05:57;;;;;;;4.95;4.55;;;;;;;-146.25;100.00;57403.91;5052306;28;20313;-86
2023/06/24 00:08:34;;;;;;;5.10;4.80;;;;;;;-146.25;100.00;57403.91;5051663;28;20211;-84
2023/06/24 00:11:02;;;;;;;7.10;5.15;;;;;;;-146.25;100.00;57403.91;5054875;28;20226;-85
2023/06/24 00:13:29;;;;;;;7.20;4.78;;;;;;;-146.25;100.00;57403.91;5071593;28;20195;-84
2023/06/24 00:15:56;;;;;;;5.47;4.97;;;;;;;-146.25;100.00;57403.91;5065660;28;20260;-83
2023/06/24 00:18:28;;;;;;;5.20;4.70;;;;;;;-146.25;100.00;57403.91;5052316;28;20237;-84
2023/06/24 00:20:57;;;;;;;8.13;5.03;;;;;;;-146.25;100.00;57403.91;5051617;28;20211;-84
2023/06/24 00:23:25;;;;;;;6.10;5.10;;;;;;;-146.25;100.00;57403.91;5051986;28;20544;-84
2023/06/24 00:25:53;;;;;;;6.82;4.68;;;;;;;-146.25;100.00;57403.91;5051002;28;20612;-84
2023/06/24 00:28:20;;;;;;;5.43;4.82;;;;;;;-146.25;100.00;57403.91;5051133;28;20358;-85
2023/06/24 00:30:48;;;;;;;5.00;4.55;;;;;;;-146.25;100.00;57403.91;5050952;28;20267;-85
2023/06/24 00:33:16;;;;;;;7.60;6.15;;;;;;;-146.25;100.00;57403.91;5051058;28;20204;-84
2023/06/24 00:35:44;;;;;;;6.07;5.35;;;;;;;-146.25;100.00;57403.91;5051419;28;20657;-84
2023/06/24 00:38:13;;;;;;;7.38;5.38;;;;;;;-146.25;100.00;57403.91;5050613;28;20235;-83
2023/06/24 00:40:40;;;;;;;5.50;5.07;;;;;;;-146.25;100.00;57403.91;5051083;28;20634;-84
2023/06/24 00:43:07;;;;;;;6.25;5.28;;;;;;;-146.25;100.00;57403.91;5050814;28;20257;-85
2023/06/24 00:45:34;;;;;;;6.22;4.78;;;;;;;-146.25;100.00;57403.91;5051071;28;20352;-84
2023/06/24 00:48:03;;;;;;;6.82;5.45;;;;;;;-146.25;100.00;57403.91;5050782;28;20276;-84
2023/06/24 00:50:30;;;;;;;5.63;4.93;;;;;;;-146.25;100.00;57403.91;5050408;28;20315;-84
2023/06/24 00:52:56;;;;;;;7.35;5.53;;;;;;;-146.25;100.00;57403.91;5050751;28;20202;-83
2023/06/24 00:55:25;;;;;;;6.63;5.22;;;;;;;-146.25;100.00;57403.91;5050178;28;20256;-84
2023/06/24 00:57:54;;;;;;;6.55;5.80;;;;;;;-146.25;100.00;57403.91;5049540;28;20230;-84
2023/06/24 01:00:22;;;;;;;7.28;5.82;;;;;;;-146.25;100.00;57403.91;5050497;28;20209;-84
2023/06/24 01:02:51;;;;;;;6.18;5.30;;;;;;;-146.25;100.00;57403.91;5050809;28;20194;-84
2023/06/24 01:05:23;;;;;;;5.57;4.93;;;;;;;-146.25;100.00;57403.91;5050611;28;20271;-84
2023/06/24 01:07:54;;;;;;;5.90;5.05;;;;;;;-146.25;100.00;57403.91;5050452;28;20265;-84
2023/06/24 01:10:23;;;;;;;5.93;5.35;;;;;;;-146.25;100.00;57403.91;5050628;28;20370;-84
2023/06/24 01:12:52;;;;;;;6.80;5.07;;;;;;;-146.25;100.00;57403.91;5050358;28;20277;-84
2023/06/24 01:15:21;;;;;;;8.70;5.32;;;;;;;-146.25;100.00;57403.91;5051286;28;20207;-83
2023/06/24 01:17:55;;;;;;;6.55;5.88;;;;;;;-146.25;100.00;57403.91;5049821;28;20234;-84
2023/06/24 01:20:28;;;;;;;7.40;5.70;;;;;;;-146.25;100.00;57403.91;5050415;28;20272;-83
2023/06/24 01:23:26;;;;;;;8.98;5.47;;;;;;;-146.25;100.00;57403.91;5049873;28;20234;-83
2023/06/24 01:26:30;;;;;;;14.02;6.05;;;;;;;-146.25;100.00;57403.91;5049875;28;20198;-84
2023/06/24 01:29:44;;;;;;;8.07;5.32;;;;;;;-146.25;100.00;57403.91;5039987;28;20464;-83
2023/06/24 01:32:19;;;;;;;10.65;5.28;;;;;;;-146.25;100.00;57403.91;5045383;28;20696;-85
2023/06/24 01:34:54;;;;;;;10.23;5.00;;;;;;;-146.25;100.00;57403.91;5049631;28;20194;-84
2023/06/24 01:37:28;;;;;;;5.57;5.18;;;;;;;-146.25;100.00;57403.91;5049919;28;20191;-84
2023/06/24 01:40:06;;;;;;;5.88;4.93;;;;;;;-146.25;100.00;57403.91;5049851;28;20209;-85
2023/06/24 01:42:36;;;;;;;7.60;5.40;;;;;;;-146.25;100.00;57403.91;5049937;28;20201;-84
2023/06/24 01:45:05;;;;;;;5.20;4.78;;;;;;;-146.25;100.00;57403.91;5050031;28;20650;-83
2023/06/24 01:47:36;;;;;;;7.43;5.30;;;;;;;-146.25;100.00;57403.91;5049958;28;20210;-84
2023/06/24 01:50:05;;;;;;;7.13;5.43;;;;;;;-146.25;100.00;57403.91;5049287;28;20234;-85
2023/06/24 01:52:36;;;;;;;7.57;5.55;;;;;;;-146.25;100.00;57403.91;5048419;28;20233;-84
2023/06/24 01:55:06;;;;;;;6.03;4.53;;;;;;;-146.25;100.00;57403.91;5049845;28;20192;-85
2023/06/24 01:57:35;;;;;;;7.10;6.00;;;;;;;-146.25;100.00;57403.91;5049532;28;20197;-84
2023/06/24 02:00:05;;;;;;;7.43;6.57;;;;;;;-146.25;100.00;57403.91;5049567;28;20647;-84
2023/06/24 02:02:34;;;;;;;6.22;5.13;;;;;;;-146.25;100.00;57403.91;5049685;28;20290;-84
2023/06/24 02:05:03;;;;;;;6.88;5.72;;;;;;;-146.25;100.00;57403.91;5049418;28;20261;-83
2023/06/24 02:07:30;;;;;;;6.18;5.63;;;;;;;-146.25;100.00;57403.91;5049005;28;20211;-84
2023/06/24 02:09:59;;;;;;;9.95;5.88;;;;;;;-146.25;100.00;57403.91;5049252;28;20294;-85
2023/06/24 02:12:27;;;;;;;6.32;5.45;;;;;;;-146.25;100.00;57403.91;5049561;28;20215;-83
2023/06/24 02:14:56;;;;;;;6.53;5.20;;;;;;;-146.25;100.00;57403.91;5050953;28;20241;-84
2023/06/24 02:17:25;;;;;;;6.38;5.35;;;;;;;-146.25;100.00;57403.91;5049635;28;20253;-83
2023/06/24 02:19:55;;;;;;;6.82;5.32;;;;;;;-146.25;100.00;57403.91;5049898;28;20319;-84
2023/06/24 02:22:23;;;;;;;6.43;5.65;;;;;;;-146.25;100.00;57403.91;5049557;28;20608;-85
2023/06/24 02:24:51;;;;;;;6.40;5.38;;;;;;;-146.25;100.00;57403.91;5049224;28;20199;-85
2023/06/24 02:27:19;;;;;;;5.72;5.22;;;;;;;-146.25;100.00;57403.91;5049295;28;20206;-83
2023/06/24 02:29:47;;;;;;;5.65;5.05;;;;;;;-146.25;100.00;57403.91;5049498;28;20198;-82
2023/06/24 02:32:14;;;;;;;6.43;5.05;;;;;;;-146.25;100.00;57403.91;5049331;28;20211;-84
2023/06/24 02:34:41;;;;;;;5.32;4.72;;;;;;;-146.25;100.00;57403.91;5049389;28;20229;-84
2023/06/24 02:37:10;;;;;;;5.22;4.75;;;;;;;-146.25;100.00;57403.91;5049011;28;20200;-83
2023/06/24 02:39:39;;;;;;;7.03;5.38;;;;;;;-146.25;100.00;57403.91;5048410;28;20242;-85
2023/06/24 02:42:06;;;;;;;8.10;4.90;;;;;;;-146.25;100.00;57403.91;5049148;28;20286;-85
2023/06/24 02:44:34;;;;;;;5.40;4.80;;;;;;;-146.25;100.00;57403.91;5049177;28;20202;-83
2023/06/24 02:47:01;;;;;;;6.40;5.65;;;;;;;-146.25;100.00;57403.91;5049118;28;20623;-83
2023/06/24 02:49:28;;;;;;;9.73;5.68;;;;;;;-146.25;100.00;57403.91;5048944;28;20311;-83
2023/06/24 02:51:55;;;;;;;6.95;4.80;;;;;;;-146.25;100.00;57403.91;5048957;28;20277;-83
2023/06/24 02:54:24;;;;;;;6.82;5.28;;;;;;;-146.25;100.00;57403.91;5049145;28;20203;-84
2023/06/24 02:56:52;;;;;;;7.63;5.43;;;;;;;-146.25;100.00;57403.91;5048729;28;20579;-83
2023/06/24 02:59:22;;;;;;;8.48;5.70;;;;;;;-146.25;100.00;57403.91;5048540;28;20677;-85
2023/06/24 03:01:49;;;;;;;7.20;5.68;;;;;;;-146.25;100.00;57403.91;5049345;28;20360;-83
2023/06/24 03:04:16;;;;;;;6.53;5.85;;;;;;;-146.25;100.00;57403.91;5048879;28;20261;-83
2023/06/24 03:06:43;;;;;;;7.30;5.00;;;;;;;-146.25;100.00;57403.91;5048921;28;20265;-83
2023/06/24 03:09:10;;;;;;;8.38;5.97;;;;;;;-146.25;100.00;57403.91;5049160;28;20199;-86
2023/06/24 03:11:45;;;;;;;5.47;4.97;;;;;;;-146.25;100.00;57403.91;5048662;28;20219;-84
2023/06/24 03:14:12;;;;;;;6.10;4.88;;;;;;;-146.25;100.00;57403.91;5049298;28;20253;-84
2023/06/24 03:16:39;;;;;;;7.22;5.00;;;;;;;-146.25;100.00;57403.91;5048861;28;20257;-84
2023/06/24 03:19:06;;;;;;;5.90;4.63;;;;;;;-146.25;100.00;57403.91;5048902;28;20237;-86
2023/06/24 03:21:33;;;;;;;5.18;4.72;;;;;;;-146.25;100.00;57403.91;5051670;28;20682;-83
2023/06/24 03:24:00;;;;;;;5.47;4.78;;;;;;;-146.25;100.00;57403.91;5052448;28;20257;-84
2023/06/24 03:26:33;;;;;;;5.20;4.70;;;;;;;-146.25;100.00;57403.91;5052211;28;20257;-84
2023/06/24 03:29:02;;;;;;;7.70;5.78;;;;;;;-146.25;100.00;57403.91;5052893;28;20187;-85
2023/06/24 03:31:28;;;;;;;6.88;4.93;;;;;;;-146.25;100.00;57403.91;5052063;28;20200;-85
2023/06/24 03:33:55;;;;;;;6.03;5.53;;;;;;;-146.25;100.00;57403.91;5052395;28;20234;-85
2023/06/24 03:36:23;;;;;;;7.72;5.30;;;;;;;-146.25;100.00;57403.91;5052352;28;20284;-84
2023/06/24 03:38:50;;;;;;;9.63;5.30;;;;;;;-146.25;100.00;57403.91;5052529;28;20327;-85
2023/06/24 03:41:17;;;;;;;6.05;5.45;;;;;;;-146.25;100.00;57403.91;5051937;28;20195;-84
2023/06/24 03:43:44;;;;;;;6.82;5.43;;;;;;;-146.25;100.00;57403.91;5051862;28;20617;-84
2023/06/24 03:46:13;;;;;;;9.02;5.13;;;;;;;-146.25;100.00;57403.91;5052155;28;20276;-84
2023/06/24 03:48:40;;;;;;;5.65;4.95;;;;;;;-146.25;100.00;57403.91;5060134;28;20211;-83
2023/06/24 03:51:07;;;;;;;7.72;5.10;;;;;;;-146.25;100.00;57403.91;5071307;28;20262;-84
2023/06/24 03:53:34;;;;;;;5.93;5.30;;;;;;;-146.25;100.00;57403.91;5057943;28;20204;-85
2023/06/24 03:56:01;;;;;;;6.05;5.45;;;;;;;-146.25;100.00;57403.91;5053554;28;20195;-84
2023/06/24 03:58:28;;;;;;;6.55;5.95;;;;;;;-146.25;100.00;57403.91;5052745;28;20294;-85
2023/06/24 04:00:56;;;;;;;7.40;6.43;;;;;;;-146.25;100.00;57403.91;5051997;28;20196;-84
2023/06/24 04:03:25;;;;;;;6.57;5.43;;;;;;;-146.25;100.00;57403.91;5051713;28;20200;-84
2023/06/24 04:05:54;;;;;;;7.40;6.05;;;;;;;-146.25;100.00;57403.91;5051306;28;20355;-83
2023/06/24 04:08:21;;;;;;;6.97;5.07;;;;;;;-146.25;100.00;57403.91;5051600;28;20201;-83
2023/06/24 04:10:48;;;;;;;5.95;5.45;;;;;;;-146.25;100.00;57403.91;5051632;28;20202;-83
2023/06/24 04:13:14;;;;;;;6.35;5.75;;;;;;;-146.25;100.00;57403.91;5051678;28;20227;-82
2023/06/24 04:15:42;;;;;;;9.02;5.65;;;;;;;-146.25;100.00;57403.91;5052477;28;20199;-83
2023/06/24 04:18:09;;;;;;;6.32;5.72;;;;;;;-146.25;100.00;57403.91;5051271;28;20199;-84
2023/06/24 04:20:38;;;;;;;9.70;5.72;;;;;;;-146.25;100.00;57403.91;5051137;28;20801;-85
2023/06/24 04:23:05;;;;;;;8.73;6.57;;;;;;;-146.25;100.00;57403.91;5051328;28;20234;-84
2023/06/24 04:25:32;;;;;;;8.23;5.47;;;;;;;-146.25;100.00;57403.91;5051529;28;20202;-83
2023/06/24 04:27:59;;;;;;;6.28;5.20;;;;;;;-146.25;100.00;57403.91;5051126;28;20196;-84
2023/06/24 04:30:26;;;;;;;7.43;6.30;;;;;;;-146.25;100.00;57403.91;5051053;28;20288;-84
2023/06/24 04:32:53;;;;;;;7.43;6.32;;;;;;;-146.25;100.00;57403.91;5051305;28;20233;-82
2023/06/24 04:35:20;;;;;;;7.35;6.55;;;;;;;-146.25;100.00;57403.91;5051212;28;20210;-84
2023/06/24 04:37:49;;;;;;;7.32;6.43;;;;;;;-146.25;100.00;57403.91;5051273;28;20619;-84
2023/06/24 04:40:17;;;;;;;6.82;6.22;;;;;;;-146.25;100.00;57403.91;5050970;28;20372;-83
2023/06/24 04:42:44;;;;;;;7.65;6.78;;;;;;;-146.25;100.00;57403.91;5050839;28;20215;-82
2023/06/24 04:45:11;;;;;;;6.70;6.20;;;;;;;-146.25;100.00;57403.91;5050670;28;20229;-83
2023/06/24 04:47:39;;;;;;;6.88;6.28;;;;;;;-146.25;100.00;57403.91;5050664;28;20195;-84
2023/06/24 04:50:09;;;;;;;6.47;5.88;;;;;;;-146.25;100.00;57403.91;5050193;28;20680;-85
2023/06/24 04:52:36;;;;;;;6.63;6.03;;;;;;;-146.25;100.00;57403.91;5050427;28;20687;-83
2023/06/24 04:55:08;;;;;;;6.55;5.95;;;;;;;-146.25;100.00;57403.91;5050763;28;20211;-84
2023/06/24 04:57:42;;;;;;;5.60;5.30;;;;;;;-146.25;100.00;57403.91;5050642;28;20237;-83
2023/06/24 05:00:10;;;;;;;8.77;6.13;;;;;;;-146.25;100.00;57403.91;5050695;28;20226;-84
2023/06/24 05:03:03;;;;;;;6.60;5.93;;;;;;;-146.25;100.00;57403.91;5050201;28;20276;-83
2023/06/24 05:06:11;;;;;;;7.13;6.47;;;;;;;-146.25;100.00;57403.91;5050240;28;20199;-83
2023/06/24 05:08:49;;;;;;;6.30;5.75;;;;;;;-146.25;100.00;57403.91;5050262;28;20282;-83
2023/06/24 05:11:18;;;;;;;8.80;6.13;;;;;;;-146.25;100.00;57403.91;5048914;28;20288;-83
2023/06/24 05:13:47;;;;;;;6.70;6.10;;;;;;;-146.25;100.00;57403.91;5050205;28;20669;-84
2023/06/24 05:16:14;;;;;;;6.15;5.65;;;;;;;-146.25;100.00;57403.91;5038287;28;20211;-83
2023/06/24 05:18:41;;;;;;;6.97;6.25;;;;;;;-146.25;100.00;57403.91;5040408;28;20203;-84
2023/06/24 05:21:08;;;;;;;7.55;6.95;;;;;;;-146.25;100.00;57403.91;5034864;28;20233;-84
2023/06/24 05:23:35;;;;;;;7.28;6.60;;;;;;;-146.25;100.00;57403.91;5037540;28;20199;-83
2023/06/24 05:26:02;;;;;;;6.60;6.00;;;;;;;-146.25;100.00;57403.91;5037432;28;20214;-84
2023/06/24 05:28:30;;;;;;;7.40;6.80;;;;;;;-146.25;100.00;57403.91;5049828;28;20195;-85
2023/06/24 05:30:58;;;;;;;6.72;6.13;;;;;;;-146.25;100.00;57403.91;5048955;28;20199;-83
2023/06/24 05:33:25;;;;;;;7.22;6.45;;;;;;;-146.25;100.00;57403.91;5049304;28;20282;-84
2023/06/24 05:35:52;;;;;;;6.53;6.03;;;;;;;-146.25;100.00;57403.91;5048795;28;20645;-84
2023/06/24 05:38:19;;;;;;;7.00;6.05;;;;;;;-146.25;100.00;57403.91;5037853;28;20253;-84
2023/06/24 05:40:47;;;;;;;6.60;6.03;;;;;;;-146.25;100.00;57403.91;5041170;28;20343;-83
2023/06/24 05:43:13;;;;;;;7.30;6.65;;;;;;;-146.25;100.00;57403.91;5041476;28;20207;-83
2023/06/24 05:45:42;;;;;;;8.70;7.78;;;;;;;-146.25;100.00;57403.91;5041348;28;20215;-83
2023/06/24 05:48:09;;;;;;;8.02;7.22;;;;;;;-146.25;100.00;57403.91;5036629;28;20202;-85
2023/06/24 05:50:36;;;;;;;6.93;6.40;;;;;;;-146.25;100.00;57403.91;5034751;28;20238;-83
2023/06/24 05:53:03;;;;;;;7.35;6.75;;;;;;;-146.25;100.00;57403.91;5029679;28;20204;-85
2023/06/24 05:55:30;;;;;;;11.70;6.53;;;;;;;-146.25;100.00;57403.91;5031439;28;20217;-84
2023/06/24 05:57:58;;;;;;;8.65;6.65;;;;;;;-146.25;100.00;57403.91;5030125;28;20199;-84
2023/06/24 06:00:27;;;;;;;7.07;6.47;;;;;;;-146.25;100.00;57403.91;5029850;28;20226;-84
2023/06/24 06:02:55;;;;;;;9.13;6.07;;;;;;;-146.25;100.00;57403.91;5029154;28;20204;-83
2023/06/24 06:05:22;;;;;;;6.82;6.32;;;;;;;-146.25;100.00;57403.91;5029919;28;20202;-84
2023/06/24 06:08:05;;;;;;;6.55;5.95;;;;;;;-146.25;100.00;57403.91;5029524;28;20585;-85
2023/06/24 06:10:45;;;;;;;6.53;5.97;;;;;;;-146.25;100.00;57403.91;5029810;28;20261;-83
2023/06/24 06:13:17;;;;;;;6.18;5.78;;;;;;;-146.25;100.00;57403.91;5030137;28;20290;-84
2023/06/24 06:15:44;;;;;;;6.85;6.35;;;;;;;-146.25;100.00;57403.91;5032858;28;20635;-83
2023/06/24 06:18:13;;;;;;;6.20;5.70;;;;;;;-146.25;100.00;57403.91;5029205;28;20214;-83
2023/06/24 06:20:39;;;;;;;5.97;5.47;;;;;;;-146.25;100.00;57403.91;5039981;28;20238;-83
2023/06/24 06:23:08;;;;;;;6.70;6.13;;;;;;;-146.25;100.00;57403.91;5049341;28;20715;-84
2023/06/24 06:25:34;;;;;;;6.60;6.03;;;;;;;-146.25;100.00;57403.91;5067262;28;20549;-84
2023/06/24 06:28:01;;;;;;;6.40;5.90;;;;;;;-146.25;100.00;57403.91;5067988;28;20198;-84
2023/06/24 06:30:28;;;;;;;5.78;5.38;;;;;;;-146.25;100.00;57403.91;5070679;28;20198;-84
2023/06/24 06:32:55;;;;;;;6.45;5.95;;;;;;;-146.25;100.00;57403.91;5069133;28;20221;-83
2023/06/24 06:35:24;;;;;;;5.68;5.30;;;;;;;-146.25;100.00;57403.91;5068496;28;20194;-85
2023/06/24 06:37:52;;;;;;;5.60;5.10;;;;;;;-146.25;100.00;57403.91;5058857;28;20226;-84
2023/06/24 06:40:20;;;;;;;6.07;5.57;;;;;;;-146.25;100.00;57403.91;5041878;28;20227;-84
2023/06/24 06:42:50;;;;;;;8.27;5.63;;;;;;;-146.25;100.00;57403.91;5038644;28;20249;-84
2023/06/24 06:45:17;;;;;;;5.82;5.40;;;;;;;-146.25;100.00;57403.91;5036409;28;20672;-84
2023/06/24 06:47:44;;;;;;;6.13;5.65;;;;;;;-146.25;100.00;57403.91;5039856;28;20600;-86
2023/06/24 06:50:11;;;;;;;6.43;5.70;;;;;;;-146.25;100.00;57403.91;5036367;28;20234;-84
2023/06/24 06:52:40;;;;;;;7.53;5.82;;;;;;;-146.25;100.00;57403.91;5038256;28;20311;-85
2023/06/24 06:55:07;;;;;;;6.35;5.75;;;;;;;-146.25;100.00;57403.91;5039640;28;20206;-86
2023/06/24 06:57:34;;;;;;;6.72;6.03;;;;;;;-146.25;100.00;57403.91;5043735;28;20574;-83
2023/06/24 07:00:02;;;;;;;6.68;5.75;;;;;;;-146.25;100.00;57403.91;5044023;28;20722;-85
2023/06/24 07:02:29;;;;;;;6.10;5.68;;;;;;;-146.25;100.00;57403.91;5044767;28;20583;-85
2023/06/24 07:04:56;;;;;;;7.05;6.55;;;;;;;-146.25;100.00;57403.91;5040356;28;20222;-84
2023/06/24 07:07:23;;;;;;;6.68;6.07;;;;;;;-146.25;100.00;57403.91;5039706;28;20203;-85
2023/06/24 07:09:52;;;;;;;6.50;6.00;;;;;;;-146.25;100.00;57403.91;5042294;28;20278;-85
2023/06/24 07:12:20;;;;;;;6.25;5.85;;;;;;;-146.25;100.00;57403.91;5043882;28;20291;-84
2023/06/24 07:14:47;;;;;;;8.32;5.82;;;;;;;-146.25;100.00;57403.91;5044662;28;20206;-85
2023/06/24 07:17:18;;;;;;;7.13;6.45;;;;;;;-146.25;100.00;57403.91;5048220;28;20214;-85
2023/06/24 07:19:48;;;;;;;7.72;6.45;;;;;;;-146.25;100.00;57403.91;5052927;28;20711;-84
2023/06/24 07:22:15;;;;;;;7.70;7.05;;;;;;;-146.25;100.00;57403.91;5040192;28;20208;-85
2023/06/24 07:24:43;;;;;;;7.07;6.57;;;;;;;-146.25;100.00;57403.91;5044309;28;20208;-83
2023/06/24 07:27:12;;;;;;;7.15;6.60;;;;;;;-146.25;100.00;57403.91;5044729;28;20206;-85
2023/06/24 07:29:39;;;;;;;7.40;6.78;;;;;;;-146.25;100.00;57403.91;5044549;28;20695;-83
2023/06/24 07:32:09;;;;;;;8.40;7.63;;;;;;;-146.25;100.00;57403.91;5053265;28;20298;-86
2023/06/24 07:34:35;;;;;;;7.65;7.03;;;;;;;-146.25;100.00;57403.91;5052922;28;20198;-84
2023/06/24 07:37:04;;;;;;;7.88;7.25;;;;;;;-146.25;100.00;57403.91;5052668;28;20202;-84
2023/06/24 07:39:34;;;;;;;6.95;6.45;;;;;;;-146.25;100.00;57403.91;5053764;28;20230;-83
2023/06/24 07:42:18;;;;;;;7.38;6.70;;;;;;;-146.25;100.00;57403.91;5063289;28;20195;-83
2023/06/24 07:44:49;;;;;;;7.47;6.88;;;;;;;-146.25;100.00;57403.91;5058208;28;20505;-84
2023/06/24 07:47:20;;;;;;;7.30;6.65;;;;;;;-146.25;100.00;57403.91;5051276;28;20200;-83
2023/06/24 07:49:47;;;;;;;7.53;6.93;;;;;;;-146.25;100.00;57403.91;5051797;28;20265;-85
2023/06/24 07:52:18;;;;;;;7.88;7.18;;;;;;;-146.25;100.00;57403.91;5064653;28;20206;-84
2023/06/24 07:55:44;;;;;;;6.95;6.38;;;;;;;-146.25;100.00;57403.91;5055890;28;20206;-85
2023/06/24 07:58:43;;;;;;;7.40;6.78;;;;;;;-146.25;100.00;57403.91;5050111;28;20253;-85
2023/06/24 08:02:10;;;;;;;7.68;6.93;;;;;;;-146.25;100.00;57403.91;5051972;28;20749;-85
2023/06/24 08:04:58;;;;;;;7.22;6.63;;;;;;;-146.25;100.00;57403.91;5051090;28;20302;-83
2023/06/24 08:07:25;;;;;;;6.35;5.85;;;;;;;-146.25;100.00;57403.91;5050114;28;20206;-84
2023/06/24 08:09:52;;;;;;;7.00;6.50;;;;;;;-146.25;100.00;57403.91;5051332;28;20630;-84
2023/06/24 08:12:19;;;;;;;7.03;6.60;;;;;;;-146.25;100.00;57403.91;5051320;28;20215;-85
2023/06/24 08:14:46;;;;;;;8.10;7.28;;;;;;;-146.25;100.00;57403.91;5052618;28;20633;-86
2023/06/24 08:17:14;;;;;;;6.88;6.35;;;;;;;-146.25;100.00;57403.91;5051341;28;20569;-85
2023/06/24 08:19:41;;;;;;;9.77;6.93;;;;;;;-146.25;100.00;57403.91;5049897;28;20272;-86
2023/06/24 08:22:08;;;;;;;7.65;6.95;;;;;;;-146.25;100.00;57403.91;5051431;28;20207;-86
2023/06/24 08:24:35;;;;;;;7.13;5.75;;;;;;;-146.25;100.00;57403.91;5050822;28;20203;-85
2023/06/24 08:27:02;;;;;;;7.53;6.85;;;;;;;-146.25;100.00;57403.91;5051287;28;20217;-84
2023/06/24 08:29:29;;;;;;;7.70;7.10;;;;;;;-146.25;100.00;57403.91;5050527;28;20206;-85
2023/06/24 08:31:57;;;;;;;8.50;6.50;;;;;;;-146.25;100.00;57403.91;5051395;28;20283;-86
2023/06/24 08:34:31;;;;;;;10.00;7.40;;;;;;;-146.25;100.00;57403.91;5050806;28;20224;-86
2023/06/24 08:37:55;;;;;;;6.95;6.45;;;;;;;-146.25;100.00;57403.91;5042061;28;20767;-85
2023/06/24 08:41:08;;;;;;;7.50;6.90;;;;;;;-146.25;100.00;57403.91;5029128;28;20266;-87
2023/06/24 08:43:50;;;;;;;9.15;7.28;;;;;;;-146.25;100.00;57403.91;5028103;28;20301;-86
2023/06/24 08:46:25;;;;;;;7.18;6.47;;;;;;;-146.25;100.00;57403.91;5027455;28;20223;-85
2023/06/24 08:49:26;;;;;;;8.07;6.65;;;;;;;-146.25;100.00;57403.91;5028976;28;20234;-86
2023/06/24 08:52:02;;;;;;;9.07;7.05;;;;;;;-146.25;100.00;57403.91;5028174;28;20257;-83
2023/06/24 08:55:29;;;;;;;7.97;6.78;;;;;;;-146.25;100.00;57403.91;5027523;28;20283;-83
2023/06/24 08:58:53;;;;;;;7.28;6.68;;;;;;;-146.25;100.00;57403.91;5029240;28;20219;-84
2023/06/24 09:01:27;;;;;;;7.75;7.05;;;;;;;-146.25;100.00;57403.91;5028680;28;20231;-84
2023/06/24 09:04:20;;;;;;;8.20;7.35;;;;;;;-146.25;100.00;57403.91;5028535;28;20230;-85
2023/06/24 09:07:03;;;;;;;8.77;7.07;;;;;;;-146.25;100.00;57403.91;5027666;28;20223;-85
2023/06/24 09:10:32;;;;;;;8.10;7.15;;;;;;;-146.25;100.00;57403.91;5028722;28;20311;-84
2023/06/24 09:13:58;;;;;;;7.97;7.18;;;;;;;-146.25;100.00;57403.91;5028444;28;20306;-85
2023/06/24 09:17:23;;;;;;;7.78;6.97;;;;;;;-146.25;100.00;57403.91;5028277;28;20224;-85
2023/06/24 09:20:49;;;;;;;6.90;6.30;;;;;;;-146.25;100.00;57403.91;5027945;28;20223;-85
2023/06/24 09:24:16;;;;;;;7.70;6.93;;;;;;;-146.25;100.00;57403.91;5047900;28;20269;-85
2023/06/24 09:27:12;;;;;;;10.00;7.40;;;;;;;-146.25;100.00;57403.91;5047299;28;20641;-83
2023/06/24 09:30:38;;;;;;;7.65;6.95;;;;;;;-146.25;100.00;57403.91;5047177;28;20222;-83
2023/06/24 09:34:08;;;;;;;8.27;7.30;;;;;;;-146.25;100.00;57403.91;5048075;28;20230;-82
2023/06/24 09:37:33;;;;;;;8.18;7.40;;;;;;;-146.25;100.00;57403.91;5046337;28;20237;-83
2023/06/24 09:40:18;;;;;;;7.18;6.55;;;;;;;-146.25;100.00;57403.91;5047682;28;20225;-82
2023/06/24 09:43:50;;;;;;;9.75;7.32;;;;;;;-146.25;100.00;57403.91;5047146;28;20272;-84
2023/06/24 09:47:16;;;;;;;6.72;6.10;;;;;;;-146.25;100.00;57403.91;5047288;28;20218;-83
2023/06/24 09:50:41;;;;;;;9.80;6.82;;;;;;;-146.25;100.00;57403.91;5047052;28;20251;-83
2023/06/24 09:54:07;;;;;;;7.43;6.72;;;;;;;-146.25;100.00;57403.91;5047640;28;20743;-84
2023/06/24 09:57:36;;;;;;;10.43;6.30;;;;;;;-146.25;100.00;57403.91;5046514;28;20227;-83
2023/06/24 10:01:03;;;;;;;8.50;6.28;;;;;;;-146.25;100.00;57403.91;5047624;28;20447;-85
2023/06/24 10:04:29;;;;;;;7.90;6.97;;;;;;;-146.25;100.00;57403.91;5047497;28;20237;-84
2023/06/24 10:07:55;;;;;;;9.32;6.35;;;;;;;-146.25;100.00;57403.91;5047604;28;20269;-85
2023/06/24 10:11:20;;;;;;;7.35;6.22;;;;;;;-146.25;100.00;57403.91;5047779;28;20289;-83
2023/06/24 10:14:48;;;;;;;6.32;5.68;;;;;;;-146.25;100.00;57403.91;5047452;28;20219;-84
2023/06/24 10:18:32;;;;;;;6.75;6.05;;;;;;;-146.25;100.00;57403.91;5047646;28;20223;-85
2023/06/24 10:21:58;;;;;;;6.97;6.35;;;;;;;-146.25;100.00;57403.91;5047248;28;20245;-83
2023/06/24 10:25:36;;;;;;;6.45;5.82;;;;;;;-146.25;100.00;57403.91;5047145;28;20223;-86
2023/06/24 10:29:17;;;;;;;7.82;6.43;;;;;;;-146.25;100.00;57403.91;5047374;28;20309;-84
2023/06/24 10:32:05;;;;;;;6.03;5.53;;;;;;;-146.25;100.00;57403.91;5051151;28;20219;-84
2023/06/24 10:34:41;;;;;;;6.35;5.72;;;;;;;-146.25;100.00;57403.91;5050703;28;20227;-84
2023/06/24 10:38:01;;;;;;;5.50;5.10;;;;;;;-146.25;100.00;57403.91;5051394;28;20863;-84
2023/06/24 10:41:18;;;;;;;6.38;5.88;;;;;;;-146.25;100.00;57403.91;5051165;28;20240;-86
2023/06/24 10:44:26;;;;;;;6.03;5.43;;;;;;;-146.25;100.00;57403.91;5050668;28;20673;-84
2023/06/24 10:47:02;;;;;;;9.55;5.68;;;;;;;-146.25;100.00;57403.91;5050711;28;20695;-84
2023/06/24 10:49:44;;;;;;;6.30;5.82;;;;;;;-146.25;100.00;57403.91;5051192;28;20239;-84
2023/06/24 10:52:41;;;;;;;8.95;5.43;;;;;;;-146.25;100.00;57403.91;5050597;28;20754;-81
2023/06/24 10:56:07;;;;;;;6.13;5.57;;;;;;;-146.25;100.00;57403.91;5051571;28;20233;-85
2023/06/24 10:59:36;;;;;;;5.57;5.05;;;;;;;-146.25;100.00;57403.91;5050589;28;20230;-85
2023/06/24 11:03:08;;;;;;;5.70;5.30;;;;;;;-146.25;100.00;57403.91;5051712;28;20254;-83
2023/06/24 11:06:34;;;;;;;5.45;4.97;;;;;;;-146.25;100.00;57403.91;5051393;28;20310;-83
2023/06/24 11:10:03;;;;;;;5.22;4.82;;;;;;;-146.25;100.00;57403.91;5051370;28;20230;-85
2023/06/24 11:13:34;;;;;;;5.82;5.20;;;;;;;-146.25;100.00;57403.91;5049987;28;20231;-84
2023/06/24 11:17:01;;;;;;;5.60;5.10;;;;;;;-146.25;100.00;57403.91;5037264;28;20231;-84
2023/06/24 11:20:27;;;;;;;5.15;4.63;;;;;;;-146.25;100.00;57403.91;5028934;28;20230;-83
2023/06/24 11:23:52;;;;;;;4.72;4.35;;;;;;;-146.25;100.00;57403.91;5030756;28;20294;-84
2023/06/24 11:27:24;;;;;;;7.97;5.00;;;;;;;-146.25;100.00;57403.91;5030378;28;20244;-84
2023/06/24 11:30:51;;;;;;;4.70;4.30;;;;;;;-146.25;100.00;57403.91;5048623;28;20216;-83
2023/06/24 11:34:28;;;;;;;5.65;5.05;;;;;;;-146.25;100.00;57403.91;5031820;28;20255;-84
2023/06/24 11:37:53;;;;;;;4.57;3.88;;;;;;;-146.25;100.00;57403.91;5030122;28;20255;-85
2023/06/24 11:41:21;;;;;;;4.45;4.20;;;;;;;-146.25;100.00;57403.91;5031561;28;20283;-85
2023/06/24 11:44:47;;;;;;;4.10;3.80;;;;;;;-146.25;100.00;57403.91;5029234;28;20731;-83
2023/06/24 11:48:12;;;;;;;4.40;4.00;;;;;;;-146.25;100.00;57403.91;5029410;28;20232;-85
2023/06/24 11:51:47;;;;;;;4.93;4.53;;;;;;;-146.25;100.00;57403.91;5029181;28;20228;-83
2023/06/24 11:55:14;;;;;;;5.50;4.20;;;;;;;-146.25;100.00;57403.91;5029809;28;20227;-83
2023/06/24 11:58:54;;;;;;;4.28;3.92;;;;;;;-146.25;100.00;57403.91;5030069;28;20297;-83
2023/06/24 12:02:20;;;;;;;5.28;4.85;;;;;;;-146.25;100.00;57403.91;5029023;28;20262;-82
2023/06/24 12:05:49;;;;;;;4.88;4.40;;;;;;;-146.25;100.00;57403.91;5030116;28;20228;-84
2023/06/24 12:09:17;;;;;;;3.90;3.58;;;;;;;-146.25;100.00;57403.91;5029944;28;20220;-84
2023/06/24 12:12:42;;;;;;;4.38;4.00;;;;;;;-146.25;100.00;57403.91;5030243;28;20224;-84
2023/06/24 12:16:08;;;;;;;4.82;4.43;;;;;;;-146.25;100.00;57403.91;5030681;28;20220;-84